Time;durP1;ratioP1;P1;durP2;ratioP2;P2;SDS_P1;SDS_P2;PMS_P1;PMS_P2;Temp;Humidity;BMP_temperature;BMP_pressure;BME280_temperature;BME280_humidity;BME280_pressure;Samples;Min_cycle;Max_cycle;Signal;HPM_P1;HPM_P2
2021/03/24 00:01:34;;;;;;;9.53;7.77;;;6.90;99.90;;;;;;5066333;28;20199;-55
2021/03/24 00:04:00;;;;;;;11.80;7.90;;;7.00;99.90;;;;;;5062897;28;20182;-58
2021/03/24 00:06:25;;;;;;;9.97;8.07;;;7.20;99.90;;;;;;5052961;28;20719;-60
2021/03/24 00:08:51;;;;;;;9.80;7.20;;;7.20;99.90;;;;;;5053073;28;20635;-59
2021/03/24 00:11:17;;;;;;;9.57;7.50;;;7.00;99.90;;;;;;5052428;28;20666;-54
2021/03/24 00:13:43;;;;;;;10.33;8.60;;;7.00;99.90;;;;;;5053060;28;20210;-57
2021/03/24 00:16:10;;;;;;;9.27;7.73;;;7.10;99.90;;;;;;5052507;28;20244;-57
2021/03/24 00:18:36;;;;;;;10.30;8.30;;;7.20;99.90;;;;;;5053226;28;20183;-58
2021/03/24 00:21:03;;;;;;;9.30;8.00;;;7.10;99.90;;;;;;5054843;28;20210;-60
2021/03/24 00:23:28;;;;;;;9.37;7.50;;;7.20;99.90;;;;;;5054401;28;20504;-55
2021/03/24 00:25:54;;;;;;;10.17;7.60;;;7.10;99.90;;;;;;5054551;28;20627;-54
2021/03/24 00:28:20;;;;;;;11.60;8.37;;;7.00;99.90;;;;;;5054877;28;20224;-52
2021/03/24 00:30:48;;;;;;;10.87;8.37;;;7.00;99.90;;;;;;5054275;28;20187;-55
2021/03/24 00:33:16;;;;;;;10.83;8.63;;;7.10;99.90;;;;;;5053847;28;20195;-59
2021/03/24 00:35:42;;;;;;;10.13;8.30;;;7.10;99.90;;;;;;5054466;28;20198;-58
2021/03/24 00:38:09;;;;;;;11.00;8.57;;;7.10;99.90;;;;;;5053758;28;20609;-59
2021/03/24 00:40:43;;;;;;;11.23;8.10;;;7.00;99.90;;;;;;5054130;28;20234;-60
2021/03/24 00:43:09;;;;;;;10.53;7.80;;;7.00;99.90;;;;;;5054491;28;20258;-60
2021/03/24 00:45:35;;;;;;;9.73;8.30;;;7.10;99.90;;;;;;5054147;28;20195;-53
2021/03/24 00:48:02;;;;;;;10.07;8.43;;;7.00;99.90;;;;;;5054146;28;20190;-60
2021/03/24 00:50:30;;;;;;;10.93;8.17;;;7.00;99.90;;;;;;5053861;28;20175;-58
2021/03/24 00:52:56;;;;;;;10.70;8.47;;;7.00;99.90;;;;;;5053840;28;20183;-52
2021/03/24 00:55:22;;;;;;;9.67;8.10;;;7.10;99.90;;;;;;5054114;28;20527;-60
2021/03/24 00:57:48;;;;;;;9.70;8.30;;;7.10;99.90;;;;;;5054163;28;20175;-58
2021/03/24 01:00:19;;;;;;;9.97;8.53;;;7.10;99.90;;;;;;5054184;28;20176;-60
2021/03/24 01:02:45;;;;;;;11.73;8.60;;;7.10;99.90;;;;;;5054031;28;20164;-57
2021/03/24 01:05:13;;;;;;;9.63;8.13;;;7.20;99.90;;;;;;5053698;28;20266;-59
2021/03/24 01:07:43;;;;;;;9.77;7.87;;;7.20;99.90;;;;;;5053856;28;20199;-60
2021/03/24 01:10:31;;;;;;;11.30;8.27;;;7.20;99.90;;;;;;5053458;28;20179;-52
2021/03/24 01:12:57;;;;;;;10.97;8.03;;;7.30;99.90;;;;;;5053487;28;20271;-61
2021/03/24 01:15:24;;;;;;;9.40;8.00;;;7.30;99.90;;;;;;5053623;28;20647;-60
2021/03/24 01:17:52;;;;;;;10.27;7.80;;;7.30;99.90;;;;;;5054488;28;20182;-60
2021/03/24 01:20:19;;;;;;;10.60;7.77;;;7.30;99.90;;;;;;5053724;28;20564;-53
2021/03/24 01:22:44;;;;;;;9.87;8.10;;;7.30;99.90;;;;;;5053600;28;20193;-60
2021/03/24 01:25:10;;;;;;;9.30;7.57;;;7.30;99.90;;;;;;5053719;28;20578;-60
2021/03/24 01:27:37;;;;;;;9.80;7.87;;;7.30;99.90;;;;;;5053883;28;20175;-56
2021/03/24 01:30:04;;;;;;;10.80;8.37;;;7.40;99.90;;;;;;5053607;28;20225;-61
2021/03/24 01:32:31;;;;;;;10.17;8.57;;;7.40;99.90;;;;;;5053486;28;20615;-59
2021/03/24 01:34:56;;;;;;;10.37;8.57;;;7.40;99.90;;;;;;5053757;28;20240;-56
2021/03/24 01:37:22;;;;;;;9.27;7.80;;;7.30;99.90;;;;;;5053597;28;20187;-60
2021/03/24 01:39:48;;;;;;;9.43;8.27;;;7.40;99.90;;;;;;5053364;28;20268;-59
2021/03/24 01:42:14;;;;;;;10.10;7.97;;;7.40;99.90;;;;;;5053452;28;20209;-56
2021/03/24 01:45:07;;;;;;;8.47;7.57;;;7.40;99.90;;;;;;5053967;28;20168;-57
2021/03/24 01:47:33;;;;;;;10.23;7.93;;;7.40;99.90;;;;;;5053648;28;20591;-54
2021/03/24 01:49:59;;;;;;;10.60;8.53;;;7.40;99.90;;;;;;5053558;28;20174;-60
2021/03/24 01:52:26;;;;;;;10.13;8.27;;;7.30;99.90;;;;;;5053492;28;20179;-57
2021/03/24 01:54:52;;;;;;;11.93;8.83;;;7.30;99.90;;;;;;5053317;28;20175;-59
2021/03/24 01:57:26;;;;;;;10.13;8.13;;;7.00;99.90;;;;;;5053707;28;20650;-54
2021/03/24 01:59:53;;;;;;;9.23;8.23;;;7.00;99.90;;;;;;5053760;28;20165;-56
2021/03/24 02:02:31;;;;;;;8.83;7.80;;;7.00;99.90;;;;;;5053269;28;20206;-58
2021/03/24 02:04:57;;;;;;;10.20;8.43;;;7.10;99.90;;;;;;5053133;28;20166;-61
2021/03/24 02:07:26;;;;;;;11.43;8.47;;;7.10;99.90;;;;;;5053932;28;20172;-58
2021/03/24 02:10:03;;;;;;;10.63;8.43;;;7.10;99.90;;;;;;5053037;28;20236;-60
2021/03/24 02:12:35;;;;;;;13.47;8.63;;;7.10;99.90;;;;;;5053238;28;20210;-59
2021/03/24 02:15:12;;;;;;;9.90;8.10;;;7.10;99.90;;;;;;5053093;28;20262;-58
2021/03/24 02:17:41;;;;;;;10.30;8.07;;;7.20;99.90;;;;;;5053161;28;20160;-54
2021/03/24 02:20:19;;;;;;;9.90;8.43;;;7.20;99.90;;;;;;5053049;28;20167;-56
2021/03/24 02:23:07;;;;;;;11.20;8.63;;;7.20;99.90;;;;;;5072216;28;20228;-60
2021/03/24 02:26:01;;;;;;;10.57;8.60;;;7.10;99.90;;;;;;5077435;28;20236;-59
2021/03/24 02:28:27;;;;;;;13.17;9.53;;;7.10;99.90;;;;;;5059124;28;20191;-59
2021/03/24 02:30:57;;;;;;;10.40;8.33;;;7.10;99.90;;;;;;5076617;28;20175;-57
2021/03/24 02:33:30;;;;;;;11.87;8.47;;;7.10;99.90;;;;;;5076721;28;20257;-55
2021/03/24 02:36:02;;;;;;;9.97;8.30;;;7.10;99.90;;;;;;5076800;28;20195;-60
2021/03/24 02:38:30;;;;;;;9.70;8.03;;;7.00;99.90;;;;;;5076949;28;20592;-54
2021/03/24 02:40:56;;;;;;;9.33;8.27;;;7.10;99.90;;;;;;5076186;28;20198;-57
2021/03/24 02:43:23;;;;;;;10.37;8.90;;;7.10;99.90;;;;;;5077198;28;20162;-60
2021/03/24 02:45:50;;;;;;;10.20;8.67;;;7.30;99.90;;;;;;5076653;28;20186;-53
2021/03/24 02:48:23;;;;;;;10.63;8.23;;;7.10;99.90;;;;;;5076346;28;20585;-60
2021/03/24 02:50:53;;;;;;;10.37;8.80;;;7.10;99.90;;;;;;5076748;28;20182;-60
2021/03/24 02:53:20;;;;;;;11.33;9.17;;;7.00;99.90;;;;;;5076637;28;20185;-55
2021/03/24 02:55:45;;;;;;;10.97;8.70;;;6.80;99.90;;;;;;5076832;28;20273;-57
2021/03/24 02:58:12;;;;;;;11.60;9.03;;;6.80;99.90;;;;;;5076303;28;20307;-59
2021/03/24 03:00:39;;;;;;;9.37;8.27;;;6.90;99.90;;;;;;5076086;28;20241;-58
2021/03/24 03:03:11;;;;;;;10.43;8.83;;;6.90;99.90;;;;;;5076650;28;20170;-59
2021/03/24 03:05:38;;;;;;;11.67;8.67;;;7.00;99.90;;;;;;5076040;28;20186;-57
2021/03/24 03:08:14;;;;;;;10.70;9.10;;;6.90;99.90;;;;;;5076509;28;20170;-53
2021/03/24 03:11:10;;;;;;;11.20;9.20;;;6.80;99.90;;;;;;5074826;28;20174;-57
2021/03/24 03:13:43;;;;;;;10.90;8.97;;;6.70;99.90;;;;;;5076060;28;20170;-55
2021/03/24 03:16:27;;;;;;;11.90;9.00;;;6.60;99.90;;;;;;5075989;28;20545;-58
2021/03/24 03:19:02;;;;;;;11.17;9.17;;;6.70;99.90;;;;;;5075997;28;20162;-60
2021/03/24 03:21:47;;;;;;;11.83;9.27;;;6.80;99.90;;;;;;5075533;28;20190;-57
2021/03/24 03:24:15;;;;;;;10.53;9.17;;;6.80;99.90;;;;;;5076290;28;20193;-60
2021/03/24 03:26:41;;;;;;;11.87;8.50;;;6.70;99.90;;;;;;5075597;28;20197;-55
2021/03/24 03:29:15;;;;;;;10.80;9.20;;;8.60;99.90;;;;;;5075599;28;20240;-54
2021/03/24 03:31:43;;;;;;;11.50;9.17;;;6.70;99.90;;;;;;5075750;28;20178;-60
2021/03/24 03:34:12;;;;;;;10.00;8.73;;;6.70;99.90;;;;;;5068663;28;20202;-61
2021/03/24 03:36:41;;;;;;;10.50;8.37;;;6.70;99.90;;;;;;5064020;28;20237;-57
2021/03/24 03:39:12;;;;;;;10.00;8.83;;;6.70;99.90;;;;;;5055367;28;20338;-58
2021/03/24 03:41:38;;;;;;;10.67;8.97;;;6.60;99.90;;;;;;5054784;28;20187;-55
2021/03/24 03:44:06;;;;;;;10.67;9.27;;;6.70;99.90;;;;;;5053865;28;20228;-60
2021/03/24 03:46:36;;;;;;;12.60;9.50;;;6.60;99.90;;;;;;5055611;28;20202;-59
2021/03/24 03:49:02;;;;;;;11.17;9.23;;;6.50;99.90;;;;;;5055273;28;20175;-58
2021/03/24 03:51:33;;;;;;;10.10;9.03;;;6.50;99.90;;;;;;5055183;28;20650;-61
2021/03/24 03:54:06;;;;;;;11.10;8.47;;;6.40;99.90;;;;;;5055557;28;20167;-55
2021/03/24 03:56:41;;;;;;;11.87;9.30;;;6.40;99.90;;;;;;5054935;28;20197;-61
2021/03/24 03:59:13;;;;;;;11.43;8.97;;;6.50;99.90;;;;;;5055152;28;20546;-58
2021/03/24 04:01:45;;;;;;;11.03;8.57;;;6.50;99.90;;;;;;5055126;28;20183;-60
2021/03/24 04:04:32;;;;;;;10.40;9.10;;;6.40;99.90;;;;;;5054943;28;20226;-60
2021/03/24 04:07:06;;;;;;;11.87;9.30;;;6.40;99.90;;;;;;5054413;28;20210;-58
2021/03/24 04:09:35;;;;;;;12.10;9.30;;;6.40;99.90;;;;;;5055402;28;20155;-58
2021/03/24 04:12:05;;;;;;;10.87;9.27;;;6.40;99.90;;;;;;5054347;28;20163;-53
2021/03/24 04:14:31;;;;;;;11.10;8.83;;;6.30;99.90;;;;;;5055129;28;20250;-56
2021/03/24 04:16:57;;;;;;;11.03;9.00;;;6.20;99.90;;;;;;5055260;28;20717;-57
2021/03/24 04:19:28;;;;;;;11.83;9.30;;;6.20;99.90;;;;;;5054636;28;20171;-58
2021/03/24 04:21:58;;;;;;;9.70;8.47;;;6.10;99.90;;;;;;5054496;28;20199;-58
2021/03/24 04:24:31;;;;;;;10.47;9.07;;;6.20;99.90;;;;;;5055325;28;20198;-60
2021/03/24 04:26:59;;;;;;;11.83;9.07;;;6.20;99.90;;;;;;5057078;28;20721;-54
2021/03/24 04:29:50;;;;;;;12.13;8.80;;;6.30;99.90;;;;;;5059635;28;20170;-60
2021/03/24 04:32:15;;;;;;;11.07;8.20;;;6.50;99.90;;;;;;5060833;28;20185;-56
2021/03/24 04:34:41;;;;;;;10.70;8.63;;;6.40;99.90;;;;;;5061492;28;20179;-60
2021/03/24 04:37:10;;;;;;;11.20;8.90;;;6.30;99.90;;;;;;5060366;28;20199;-56
2021/03/24 04:39:50;;;;;;;10.93;8.27;;;6.40;99.90;;;;;;5060427;28;20185;-60
2021/03/24 04:42:20;;;;;;;10.63;8.37;;;6.40;99.90;;;;;;5066368;28;20205;-54
2021/03/24 04:44:50;;;;;;;11.13;8.63;;;6.40;99.90;;;;;;5061988;28;20179;-56
2021/03/24 04:47:33;;;;;;;10.57;8.47;;;6.50;99.90;;;;;;5057399;28;20266;-55
2021/03/24 04:50:06;;;;;;;11.20;8.87;;;6.50;99.90;;;;;;5057725;28;20171;-58
2021/03/24 04:52:34;;;;;;;10.07;8.70;;;6.50;99.90;;;;;;5054105;28;20175;-56
2021/03/24 04:55:08;;;;;;;10.60;9.17;;;6.60;99.90;;;;;;5059162;28;20574;-57
2021/03/24 04:57:35;;;;;;;11.10;9.27;;;6.60;99.90;;;;;;5063218;28;20809;-54
2021/03/24 05:00:09;;;;;;;12.77;9.40;;;6.60;99.90;;;;;;5067552;28;20255;-60
2021/03/24 05:02:38;;;;;;;11.63;9.37;;;6.50;99.90;;;;;;5073749;28;20217;-54
2021/03/24 05:05:22;;;;;;;11.13;9.40;;;6.60;99.90;;;;;;5074134;28;20194;-60
2021/03/24 05:08:17;;;;;;;11.60;9.27;;;6.70;99.90;;;;;;5072739;28;20181;-60
2021/03/24 05:10:43;;;;;;;11.90;9.40;;;6.50;99.90;;;;;;5068164;28;20269;-57
2021/03/24 05:13:23;;;;;;;11.27;9.53;;;6.50;99.90;;;;;;5073449;28;20214;-55
2021/03/24 05:16:25;;;;;;;12.60;10.23;;;6.50;99.90;;;;;;5074098;28;20202;-57
2021/03/24 05:18:53;;;;;;;12.47;10.07;;;6.50;99.90;;;;;;5012440;28;20188;-58
2021/03/24 05:21:57;;;;;;;12.90;10.63;;;6.40;99.90;;;;;;5011777;28;20208;-56
2021/03/24 05:24:27;;;;;;;12.40;10.73;;;6.40;99.90;;;;;;5012393;28;20612;-60
2021/03/24 05:27:00;;;;;;;13.07;10.90;;;6.40;99.90;;;;;;5012409;28;20640;-54
2021/03/24 05:29:29;;;;;;;12.50;10.53;;;6.50;99.90;;;;;;5012596;28;20671;-55
2021/03/24 05:31:56;;;;;;;12.37;10.03;;;6.50;99.90;;;;;;5011643;28;20173;-55
2021/03/24 05:34:29;;;;;;;13.30;11.40;;;6.40;99.90;;;;;;5011909;28;20707;-59
2021/03/24 05:36:55;;;;;;;13.90;10.90;;;6.40;99.90;;;;;;5011644;28;20220;-61
2021/03/24 05:39:32;;;;;;;15.37;11.07;;;6.50;99.90;;;;;;5012277;28;20522;-58
2021/03/24 05:42:03;;;;;;;11.53;9.93;;;6.50;99.90;;;;;;5011508;28;20266;-58
2021/03/24 05:44:47;;;;;;;14.07;10.93;;;6.50;99.90;;;;;;5011720;28;20280;-57
2021/03/24 05:47:21;;;;;;;15.27;10.70;;;6.30;99.90;;;;;;5012066;28;20176;-61
2021/03/24 05:49:46;;;;;;;11.40;10.20;;;6.30;99.90;;;;;;5011689;28;20287;-58
2021/03/24 05:52:24;;;;;;;11.27;9.83;;;6.20;99.90;;;;;;5011750;28;20216;-57
2021/03/24 05:55:17;;;;;;;11.87;9.90;;;6.20;99.90;;;;;;5031994;28;20190;-60
2021/03/24 05:57:59;;;;;;;12.43;10.17;;;6.10;99.90;;;;;;5075164;28;20211;-58
2021/03/24 06:00:42;;;;;;;12.33;9.67;;;6.00;99.90;;;;;;5069892;28;20558;-56
2021/03/24 06:03:19;;;;;;;15.00;10.97;;;6.00;99.90;;;;;;5067085;28;20537;-60
2021/03/24 06:06:16;;;;;;;12.63;10.40;;;6.10;99.90;;;;;;5054783;28;20191;-61
2021/03/24 06:08:59;;;;;;;11.77;10.00;;;6.20;99.90;;;;;;5054984;28;20168;-61
2021/03/24 06:11:30;;;;;;;12.50;10.53;;;6.10;99.90;;;;;;5054521;28;20697;-58
2021/03/24 06:14:34;;;;;;;11.30;10.10;;;6.10;99.90;;;;;;5054959;28;20635;-58
2021/03/24 06:17:29;;;;;;;12.17;10.30;;;6.10;99.90;;;;;;5054487;28;20202;-57
2021/03/24 06:20:28;;;;;;;12.37;10.60;;;6.10;99.90;;;;;;5054653;28;20159;-59
2021/03/24 06:23:32;;;;;;;12.30;10.37;;;6.10;99.90;;;;;;5056902;28;20179;-57
2021/03/24 06:26:41;;;;;;;12.50;10.50;;;6.10;99.90;;;;;;5061788;28;20746;-59
2021/03/24 06:29:23;;;;;;;12.47;10.17;;;6.10;99.90;;;;;;5067583;28;20308;-57
2021/03/24 06:32:20;;;;;;;12.73;10.83;;;6.30;99.90;;;;;;5056125;28;20155;-61
2021/03/24 06:35:12;;;;;;;14.03;11.53;;;6.50;99.90;;;;;;5070980;28;20178;-61
2021/03/24 06:38:12;;;;;;;12.83;11.33;;;6.60;99.90;;;;;;5076780;28;20642;-60
2021/03/24 06:41:08;;;;;;;11.93;10.37;;;6.70;99.90;;;;;;5077052;28;20181;-55
2021/03/24 06:43:49;;;;;;;12.93;11.43;;;6.80;99.90;;;;;;5067620;28;20270;-57
2021/03/24 06:46:39;;;;;;;12.43;10.43;;;6.90;99.90;;;;;;5064279;28;20753;-61
2021/03/24 06:49:25;;;;;;;15.43;12.13;;;7.10;99.90;;;;;;5058788;28;20182;-61
2021/03/24 06:51:56;;;;;;;12.27;10.97;;;7.30;99.90;;;;;;5062770;28;20170;-59
2021/03/24 06:54:36;;;;;;;12.37;10.93;;;7.30;99.90;;;;;;5062415;28;20182;-58
2021/03/24 06:57:24;;;;;;;14.00;11.53;;;7.30;99.90;;;;;;5064346;28;20198;-58
2021/03/24 07:00:11;;;;;;;14.17;11.93;;;7.30;99.90;;;;;;5074475;28;20733;-58
2021/03/24 07:03:02;;;;;;;13.17;11.27;;;7.60;99.90;;;;;;5069449;28;20208;-61
2021/03/24 07:06:02;;;;;;;13.97;11.70;;;7.50;99.90;;;;;;5055633;28;20218;-58
2021/03/24 07:08:49;;;;;;;13.00;10.87;;;7.40;99.90;;;;;;5060651;28;20241;-61
2021/03/24 07:11:49;;;;;;;12.37;11.00;;;7.50;99.90;;;;;;5063514;28;20175;-59
2021/03/24 07:14:17;;;;;;;11.87;10.20;;;7.50;99.90;;;;;;5061074;28;20527;-59
2021/03/24 07:17:15;;;;;;;12.30;10.30;;;7.40;99.90;;;;;;5065438;28;20226;-59
2021/03/24 07:20:04;;;;;;;11.10;9.60;;;7.30;99.90;;;;;;5073917;28;20185;-54
2021/03/24 07:22:47;;;;;;;11.70;9.90;;;7.20;99.90;;;;;;5075454;28;20550;-56
2021/03/24 07:25:47;;;;;;;11.77;10.13;;;7.10;99.90;;;;;;5058662;28;20219;-57
2021/03/24 07:28:25;;;;;;;13.07;10.80;;;7.10;99.90;;;;;;5056686;28;20682;-60
2021/03/24 07:31:11;;;;;;;13.80;10.77;;;7.00;99.90;;;;;;5074652;28;20178;-58
2021/03/24 07:33:46;;;;;;;15.70;12.40;;;7.20;99.90;;;;;;5073882;28;20178;-59
2021/03/24 07:36:34;;;;;;;11.43;9.90;;;7.30;99.90;;;;;;5075595;28;20190;-55
2021/03/24 07:39:29;;;;;;;12.60;10.80;;;7.60;99.90;;;;;;5072190;28;20201;-60
2021/03/24 07:42:31;;;;;;;13.40;11.80;;;7.70;99.90;;;;;;5075607;28;20602;-59
2021/03/24 07:45:23;;;;;;;12.40;10.77;;;7.70;99.90;;;;;;5056811;28;20197;-60
2021/03/24 07:48:36;;;;;;;14.60;11.30;;;7.80;99.90;;;;;;5055684;28;20225;-60
2021/03/24 07:51:39;;;;;;;14.37;12.17;;;8.00;99.90;;;;;;5055278;28;20171;-60
2021/03/24 07:54:16;;;;;;;13.27;11.00;;;7.90;99.90;;;;;;5055319;28;20175;-60
2021/03/24 07:57:04;;;;;;;13.63;11.77;;;7.80;99.90;;;;;;5055417;28;20650;-60
2021/03/24 07:59:37;;;;;;;14.17;11.77;;;7.80;99.90;;;;;;5055646;28;20191;-60
2021/03/24 08:02:20;;;;;;;16.53;12.67;;;8.00;99.90;;;;;;5056009;28;20202;-59
2021/03/24 08:05:15;;;;;;;14.73;12.00;;;8.30;99.90;;;;;;5054909;28;20186;-59
2021/03/24 08:07:52;;;;;;;14.20;11.83;;;8.30;99.90;;;;;;5072643;28;20607;-58
2021/03/24 08:10:31;;;;;;;16.50;13.20;;;8.40;99.90;;;;;;5072543;28;20235;-56
2021/03/24 08:13:24;;;;;;;14.43;12.57;;;8.40;99.90;;;;;;5072498;28;20253;-60
2021/03/24 08:16:01;;;;;;;14.47;12.67;;;8.60;99.90;;;;;;5074189;28;20194;-56
2021/03/24 08:18:54;;;;;;;14.67;11.73;;;8.70;99.90;;;;;;5075213;28;20237;-59
2021/03/24 08:21:40;;;;;;;15.23;12.83;;;9.00;99.90;;;;;;5060421;28;20211;-57
2021/03/24 08:24:38;;;;;;;16.10;12.90;;;9.00;99.90;;;;;;5054822;28;20166;-60
2021/03/24 08:27:15;;;;;;;16.77;12.50;;;8.80;99.90;;;;;;5054494;28;20247;-59
2021/03/24 08:30:03;;;;;;;17.27;13.70;;;8.70;99.90;;;;;;5054740;28;20756;-60
2021/03/24 08:32:34;;;;;;;16.70;14.17;;;8.70;99.90;;;;;;5053778;28;20194;-58
2021/03/24 08:35:45;;;;;;;20.20;14.33;;;8.50;99.90;;;;;;5054180;28;20182;-57
2021/03/24 08:38:40;;;;;;;16.30;13.37;;;8.50;99.90;;;;;;5053909;28;20183;-55
2021/03/24 08:41:18;;;;;;;15.80;13.33;;;8.70;99.90;;;;;;5054506;28;20207;-55
2021/03/24 08:44:01;;;;;;;15.67;13.63;;;8.60;99.90;;;;;;5053629;28;20226;-60
2021/03/24 08:46:44;;;;;;;18.47;14.13;;;8.70;99.90;;;;;;5054096;28;20186;-58
2021/03/24 08:49:14;;;;;;;18.37;14.77;;;9.00;99.90;;;;;;5053853;28;20198;-60
2021/03/24 08:51:50;;;;;;;18.50;14.90;;;9.40;99.90;;;;;;5053688;28;20167;-59
2021/03/24 08:54:41;;;;;;;17.90;14.63;;;9.30;99.90;;;;;;5085504;28;20178;-60
2021/03/24 08:57:28;;;;;;;16.00;13.73;;;9.50;99.90;;;;;;5062229;28;20671;-56
2021/03/24 09:00:06;;;;;;;16.83;14.87;;;9.90;99.90;;;;;;5084098;28;20178;-56
2021/03/24 09:03:04;;;;;;;15.93;13.10;;;10.20;99.90;;;;;;5075627;28;20649;-58
2021/03/24 09:05:35;;;;;;;16.07;13.77;;;10.40;99.90;;;;;;5075748;28;20182;-58
2021/03/24 09:08:29;;;;;;;18.47;14.90;;;10.20;99.90;;;;;;5074023;28;20205;-56
2021/03/24 09:11:20;;;;;;;16.53;13.93;;;10.10;99.90;;;;;;5070044;28;20265;-55
2021/03/24 09:14:24;;;;;;;16.80;14.53;;;9.90;99.90;;;;;;5073307;28;20187;-58
2021/03/24 09:16:59;;;;;;;17.57;13.53;;;9.60;99.90;;;;;;5068834;28;20194;-58
2021/03/24 09:19:41;;;;;;;17.67;13.23;;;9.20;99.90;;;;;;5069113;28;20570;-58
2021/03/24 09:22:25;;;;;;;20.03;15.60;;;8.90;99.90;;;;;;5067288;28;20206;-60
2021/03/24 09:25:21;;;;;;;18.13;14.70;;;8.50;99.90;;;;;;5068251;28;20174;-53
2021/03/24 09:28:08;;;;;;;17.20;14.33;;;8.40;99.90;;;;;;5063984;28;20216;-56
2021/03/24 09:30:54;;;;;;;18.07;15.47;;;8.30;99.90;;;;;;5073484;28;20200;-57
2021/03/24 09:33:28;;;;;;;21.73;15.67;;;8.20;99.90;;;;;;5066824;28;20185;-57
2021/03/24 09:36:18;;;;;;;19.10;15.23;;;8.00;99.90;;;;;;5078521;28;20201;-59
2021/03/24 09:38:46;;;;;;;18.07;14.33;;;8.00;99.90;;;;;;5094660;28;20186;-60
2021/03/24 09:41:17;;;;;;;18.47;15.23;;;8.20;99.90;;;;;;5084648;28;20687;-58
2021/03/24 09:43:50;;;;;;;19.30;15.37;;;8.50;99.90;;;;;;5085249;28;20714;-59
2021/03/24 09:46:34;;;;;;;17.47;14.30;;;8.80;99.90;;;;;;5093726;28;20208;-55
2021/03/24 09:49:21;;;;;;;19.20;15.70;;;8.50;99.90;;;;;;5071726;28;20165;-60
2021/03/24 09:52:30;;;;;;;18.03;14.90;;;8.50;99.90;;;;;;5089202;28;20665;-60
2021/03/24 09:55:08;;;;;;;18.00;14.40;;;8.50;99.90;;;;;;5062409;28;20235;-59
2021/03/24 09:57:49;;;;;;;21.60;16.40;;;8.60;99.90;;;;;;5087108;28;20537;-59
2021/03/24 10:00:18;;;;;;;18.80;14.43;;;8.80;99.90;;;;;;5098224;28;20182;-55
2021/03/24 10:03:06;;;;;;;19.40;14.80;;;8.90;99.90;;;;;;5096913;28;20208;-59
2021/03/24 10:05:57;;;;;;;17.37;14.70;;;9.00;99.90;;;;;;5097836;28;20190;-58
2021/03/24 10:08:30;;;;;;;21.73;15.43;;;8.90;99.80;;;;;;5097129;28;20158;-59
2021/03/24 10:11:05;;;;;;;18.87;15.07;;;8.80;99.90;;;;;;5098079;28;20180;-60
2021/03/24 10:13:36;;;;;;;20.23;15.10;;;8.90;99.90;;;;;;5097631;28;20180;-55
2021/03/24 10:16:09;;;;;;;18.00;15.10;;;9.30;99.90;;;;;;5097405;28;20181;-60
2021/03/24 10:18:45;;;;;;;18.93;15.00;;;9.70;99.40;;;;;;5094726;28;20161;-58
2021/03/24 10:21:16;;;;;;;19.13;15.43;;;10.00;98.40;;;;;;5056889;28;20189;-58
2021/03/24 10:23:45;;;;;;;19.83;16.03;;;10.30;99.70;;;;;;5066774;28;20542;-57
2021/03/24 10:26:32;;;;;;;17.13;15.07;;;10.60;97.40;;;;;;5057200;28;20245;-57
2021/03/24 10:29:09;;;;;;;17.03;14.40;;;11.10;97.60;;;;;;5056840;28;20170;-57
2021/03/24 10:31:41;;;;;;;17.17;14.77;;;11.10;96.70;;;;;;5057176;28;20493;-55
2021/03/24 10:34:24;;;;;;;18.97;15.83;;;11.60;96.70;;;;;;5056233;28;20206;-56
2021/03/24 10:37:18;;;;;;;16.70;14.03;;;12.50;94.80;;;;;;5057152;28;20647;-58
2021/03/24 10:40:12;;;;;;;17.27;15.23;;;13.20;94.40;;;;;;5048995;28;20185;-56
2021/03/24 10:42:49;;;;;;;17.63;15.60;;;13.80;94.50;;;;;;5056376;28;20294;-59
2021/03/24 10:45:31;;;;;;;17.43;15.23;;;14.50;92.00;;;;;;5056504;28;20277;-59
2021/03/24 10:48:23;;;;;;;16.50;14.80;;;14.00;91.10;;;;;;5057176;28;20703;-60
2021/03/24 10:51:05;;;;;;;17.00;15.20;;;14.30;90.50;;;;;;5048800;28;20188;-57
2021/03/24 10:53:34;;;;;;;16.47;14.73;;;15.10;91.80;;;;;;5056750;28;20186;-60
2021/03/24 10:56:23;;;;;;;18.03;15.47;;;16.20;90.60;;;;;;5055936;28;20222;-60
2021/03/24 10:59:27;;;;;;;17.27;15.47;;;17.30;84.80;;;;;;5056661;28;20205;-58
2021/03/24 11:02:04;;;;;;;17.90;15.33;;;16.80;82.20;;;;;;5053398;28;20207;-60
2021/03/24 11:05:08;;;;;;;16.63;14.93;;;17.20;81.00;;;;;;5056569;28;20159;-57
2021/03/24 11:08:03;;;;;;;16.88;15.20;;;18.80;78.70;;;;;;5055620;28;20184;-61
2021/03/24 11:11:07;;;;;;;17.45;15.65;;;20.50;70.80;;;;;;5056253;28;20168;-61
2021/03/24 11:13:47;;;;;;;16.23;14.63;;;20.90;68.80;;;;;;5056358;28;20170;-57
2021/03/24 11:16:35;;;;;;;16.13;14.43;;;20.50;69.70;;;;;;5056747;28;20195;-59
2021/03/24 11:19:21;;;;;;;17.15;15.45;;;19.80;67.30;;;;;;5056612;28;20171;-59
2021/03/24 11:21:47;;;;;;;15.48;13.98;;;20.60;67.90;;;;;;5055428;28;20245;-60
2021/03/24 11:24:19;;;;;;;16.10;14.60;;;22.70;65.80;;;;;;5056129;28;20512;-60
2021/03/24 11:27:03;;;;;;;15.85;14.18;;;24.40;60.40;;;;;;5056995;28;20195;-61
2021/03/24 11:29:31;;;;;;;17.20;15.60;;;25.30;55.90;;;;;;5075928;28;20248;-57
2021/03/24 11:32:29;;;;;;;16.77;15.23;;;24.90;55.60;;;;;;5074353;28;20224;-59
2021/03/24 11:34:59;;;;;;;16.77;14.98;;;24.80;53.80;;;;;;4997783;28;20677;-60
2021/03/24 11:37:36;;;;;;;17.38;15.73;;;23.80;56.50;;;;;;5013168;28;20726;-54
2021/03/24 11:40:17;;;;;;;16.08;14.48;;;23.80;55.10;;;;;;5014146;28;20191;-58
2021/03/24 11:42:52;;;;;;;16.90;15.38;;;24.40;56.70;;;;;;4996585;28;20246;-54
2021/03/24 11:45:19;;;;;;;17.33;15.73;;;24.40;53.30;;;;;;5012974;28;20212;-60
2021/03/24 11:47:50;;;;;;;16.95;15.27;;;23.10;54.10;;;;;;5013581;28;20193;-58
2021/03/24 11:50:25;;;;;;;18.25;16.38;;;23.30;54.00;;;;;;5013467;28;20211;-59
2021/03/24 11:53:17;;;;;;;17.23;15.57;;;24.20;52.40;;;;;;5013281;28;20207;-57
2021/03/24 11:56:11;;;;;;;17.27;15.68;;;24.50;52.10;;;;;;5011929;28;20782;-58
2021/03/24 11:58:44;;;;;;;16.33;14.82;;;24.60;51.40;;;;;;5013154;28;20255;-51
2021/03/24 12:01:30;;;;;;;16.73;15.13;;;25.70;50.30;;;;;;5012520;28;20189;-57
2021/03/24 12:04:19;;;;;;;16.77;14.88;;;25.20;52.30;;;;;;5013185;28;20188;-56
2021/03/24 12:07:10;;;;;;;17.08;15.43;;;24.20;53.00;;;;;;5013123;28;20200;-55
2021/03/24 12:09:39;;;;;;;16.52;15.02;;;24.10;54.20;;;;;;5014049;28;20188;-56
2021/03/24 12:12:10;;;;;;;17.52;15.93;;;23.60;54.30;;;;;;5048190;28;20187;-60
2021/03/24 12:14:38;;;;;;;19.00;17.10;;;22.90;52.90;;;;;;5054447;28;20708;-60
2021/03/24 12:17:23;;;;;;;17.25;15.65;;;22.70;52.20;;;;;;5055121;28;20192;-58
2021/03/24 12:19:50;;;;;;;17.13;15.52;;;22.80;52.60;;;;;;5054313;28;20160;-61
2021/03/24 12:22:18;;;;;;;16.50;15.00;;;23.20;53.70;;;;;;5068283;28;20562;-60
2021/03/24 12:24:45;;;;;;;16.33;14.80;;;22.70;53.60;;;;;;5074963;28;20730;-59
2021/03/24 12:27:21;;;;;;;17.63;15.88;;;22.80;53.40;;;;;;5074712;28;20178;-58
2021/03/24 12:30:14;;;;;;;17.90;16.20;;;23.50;51.40;;;;;;5074157;28;20189;-58
2021/03/24 12:32:41;;;;;;;17.05;15.35;;;22.40;52.30;;;;;;5074872;28;20163;-61
2021/03/24 12:35:23;;;;;;;16.65;14.90;;;21.20;53.10;;;;;;5074167;28;20198;-60
2021/03/24 12:38:00;;;;;;;17.88;16.08;;;20.70;54.50;;;;;;5074696;28;20550;-56
2021/03/24 12:40:26;;;;;;;16.33;14.82;;;20.50;56.20;;;;;;5074752;28;20502;-62
2021/03/24 12:43:04;;;;;;;17.25;15.55;;;21.90;54.50;;;;;;5074913;28;20526;-59
2021/03/24 12:45:40;;;;;;;17.10;15.50;;;22.70;53.10;;;;;;5074279;28;20197;-58
2021/03/24 12:48:24;;;;;;;15.45;13.95;;;21.40;53.70;;;;;;5065167;28;20209;-58
2021/03/24 12:51:13;;;;;;;16.95;15.35;;;22.10;57.30;;;;;;5063114;28;20185;-62
2021/03/24 12:53:53;;;;;;;15.15;13.65;;;22.50;54.50;;;;;;5054930;28;20171;-54
2021/03/24 12:56:46;;;;;;;15.38;13.90;;;23.40;55.30;;;;;;5059279;28;20188;-60
2021/03/24 12:59:36;;;;;;;16.40;14.82;;;25.20;52.60;;;;;;5074220;28;20155;-58
2021/03/24 13:02:20;;;;;;;17.00;15.30;;;24.30;50.70;;;;;;5073528;28;20592;-61
2021/03/24 13:05:06;;;;;;;18.13;16.42;;;22.70;51.50;;;;;;5073685;28;20155;-58
2021/03/24 13:07:34;;;;;;;17.00;15.40;;;22.70;51.90;;;;;;5073455;28;20189;-57
2021/03/24 13:10:05;;;;;;;17.42;15.73;;;22.20;52.30;;;;;;5066224;28;20166;-58
2021/03/24 13:12:45;;;;;;;17.42;15.82;;;21.30;54.50;;;;;;5073494;28;20174;-57
2021/03/24 13:15:18;;;;;;;16.88;15.38;;;20.70;56.90;;;;;;5073206;28;20202;-54
2021/03/24 13:18:11;;;;;;;17.02;15.25;;;20.80;56.70;;;;;;5068089;28;20167;-52
2021/03/24 13:21:11;;;;;;;16.77;15.18;;;20.10;56.70;;;;;;5052966;28;20183;-51
2021/03/24 13:23:59;;;;;;;17.38;15.77;;;20.20;55.80;;;;;;5053793;28;20183;-57
2021/03/24 13:26:36;;;;;;;17.48;15.77;;;21.00;54.70;;;;;;5053082;28;20187;-52
2021/03/24 13:29:24;;;;;;;18.50;16.70;;;20.80;56.70;;;;;;5053731;28;20194;-57
2021/03/24 13:32:00;;;;;;;17.25;15.30;;;20.80;55.00;;;;;;5053296;28;20172;-61
2021/03/24 13:34:47;;;;;;;17.35;15.68;;;20.20;57.70;;;;;;5053848;28;20155;-60
2021/03/24 13:37:23;;;;;;;16.73;15.23;;;20.90;56.30;;;;;;5051295;28;20651;-58